Terminal Aerodrome Forecast
Issued by NWS Paducah, KY

Home | Current Version | Previous Version | Text Only | Print | Product List | Glossary On
Versions: 1 2 3 4 5 6 7 8 9 10 11 12 13
000
FTUS43 KPAH 190500
TAFEVV
TAF
KEVV 190520Z 1906/2006 21005KT P6SM SCT150
     FM190900 18010KT P6SM SCT080 BKN150
     FM191400 22014G24KT P6SM BKN080
     FM191900 24015G25KT P6SM SCT030 BKN060
     FM192300 26010KT P6SM SCT060
     FM200300 29007KT P6SM SKC=

USA.gov is the U.S. government's official web portal to all federal, state and local government web resources and services.